createdAt,value
2024-03-02T00:01:54.761Z,32.30
2024-03-02T00:04:28.405Z,26.17
2024-03-02T00:07:02.151Z,31.33
2024-03-02T00:09:37.851Z,29.23
2024-03-02T00:12:14.973Z,28.55
2024-03-02T00:14:48.108Z,28.02
2024-03-02T00:17:27.731Z,32.55
2024-03-02T00:20:00.793Z,27.45
2024-03-02T00:22:33.606Z,29.40
2024-03-02T00:25:09.944Z,31.60
2024-03-02T00:27:43.162Z,29.67
2024-03-02T00:30:47.202Z,29.38
2024-03-02T00:33:22.010Z,31.52
2024-03-02T00:35:55.132Z,32.10
2024-03-02T00:38:29.308Z,27.15
2024-03-02T00:41:09.144Z,29.13
2024-03-02T00:43:47.300Z,35.33
2024-03-02T00:46:21.860Z,28.92
2024-03-02T00:48:57.683Z,27.63
2024-03-02T00:51:32.645Z,30.52
2024-03-02T00:54:08.557Z,27.13
2024-03-02T00:56:43.770Z,28.65
2024-03-02T00:59:17.091Z,28.38
2024-03-02T01:01:51.460Z,25.02
2024-03-02T01:04:24.597Z,25.80
2024-03-02T01:06:58.105Z,25.15
2024-03-02T01:09:31.227Z,26.25
2024-03-02T01:12:06.083Z,26.80
2024-03-02T01:14:39.042Z,27.40
2024-03-02T01:17:12.049Z,28.42
2024-03-02T01:19:45.148Z,26.42
2024-03-02T01:22:21.195Z,26.92
2024-03-02T01:24:54.168Z,27.65
2024-03-02T01:27:29.300Z,25.38
2024-03-02T01:30:02.607Z,28.75
2024-03-02T01:32:35.932Z,32.03
2024-03-02T01:35:10.076Z,29.25
2024-03-02T01:37:43.134Z,29.50
2024-03-02T01:40:16.538Z,27.33
2024-03-02T01:42:51.134Z,26.77
2024-03-02T01:45:24.563Z,23.88
2024-03-02T01:47:57.791Z,24.27
2024-03-02T01:50:33.606Z,26.17
2024-03-02T01:53:07.070Z,23.05
2024-03-02T01:55:41.724Z,26.67
2024-03-02T01:58:18.575Z,26.05
2024-03-02T02:00:51.846Z,28.17
2024-03-02T02:03:24.995Z,26.20
2024-03-02T02:05:58.620Z,25.95
2024-03-02T02:08:31.901Z,24.00
2024-03-02T02:11:05.130Z,26.25
2024-03-02T02:13:39.481Z,25.52
2024-03-02T02:16:12.484Z,24.17
2024-03-02T02:18:45.785Z,25.95
2024-03-02T02:21:18.948Z,25.40
2024-03-02T02:23:53.756Z,23.73
2024-03-02T02:26:27.040Z,27.88
2024-03-02T02:29:00.141Z,27.27
2024-03-02T02:31:39.976Z,28.67
2024-03-02T02:34:13.616Z,27.52
2024-03-02T02:36:46.811Z,25.63
2024-03-02T02:39:27.757Z,24.88
2024-03-02T02:42:02.277Z,25.15
2024-03-02T02:44:35.589Z,25.55
2024-03-02T02:47:08.580Z,25.17
2024-03-02T02:49:41.780Z,29.23
2024-03-02T02:52:14.870Z,25.60
2024-03-02T02:54:49.737Z,25.70
2024-03-02T02:57:22.855Z,23.88
2024-03-02T02:59:55.911Z,24.27
2024-03-02T03:02:30.620Z,24.63
2024-03-02T03:05:03.725Z,23.90
2024-03-02T03:07:37.734Z,24.17
2024-03-02T03:10:12.456Z,23.17
2024-03-02T03:12:45.902Z,21.48
2024-03-02T03:15:19.379Z,21.70
2024-03-02T03:17:55.907Z,22.45
2024-03-02T03:20:29.016Z,24.13
2024-03-02T03:23:02.141Z,23.83
2024-03-02T03:25:36.336Z,23.85
2024-03-02T03:28:11.213Z,23.50
2024-03-02T03:30:44.408Z,22.98
2024-03-02T03:33:17.819Z,22.77
2024-03-02T03:35:51.063Z,27.63
2024-03-02T03:38:24.344Z,23.45
2024-03-02T03:40:59.254Z,25.10
2024-03-02T03:43:32.463Z,22.90
2024-03-02T03:46:05.820Z,23.60
2024-03-02T03:48:39.006Z,22.80
2024-03-02T03:51:12.138Z,25.00
2024-03-02T03:53:46.252Z,21.95
2024-03-02T03:56:21.974Z,27.33
2024-03-02T03:58:55.480Z,24.42
2024-03-02T04:01:29.374Z,23.38
2024-03-02T04:04:03.220Z,24.63
2024-03-02T04:06:36.876Z,26.83
2024-03-02T04:09:10.436Z,25.25
2024-03-02T04:11:45.880Z,25.17
2024-03-02T04:14:19.338Z,27.58
2024-03-02T04:16:52.864Z,25.00
2024-03-02T04:19:25.968Z,27.55
2024-03-02T04:22:01.635Z,27.90
2024-03-02T04:24:38.872Z,25.10
2024-03-02T04:27:13.638Z,24.88
2024-03-02T04:29:47.438Z,28.52
2024-03-02T04:32:21.897Z,27.88
2024-03-02T04:34:54.787Z,25.92
2024-03-02T04:37:27.696Z,28.83
2024-03-02T04:40:00.712Z,26.20
2024-03-02T04:42:35.253Z,22.05
2024-03-02T04:45:09.371Z,24.85
2024-03-02T04:47:42.848Z,26.20
2024-03-02T04:50:16.023Z,25.60
2024-03-02T04:52:48.932Z,24.73
2024-03-02T04:55:46.510Z,27.77
2024-03-02T04:58:20.744Z,27.67
2024-03-02T05:00:53.776Z,25.85
2024-03-02T05:03:26.710Z,25.13
2024-03-02T05:05:59.652Z,26.13
2024-03-02T05:08:32.563Z,27.02
2024-03-02T05:11:19.816Z,29.63
2024-03-02T05:13:54.240Z,26.63
2024-03-02T05:16:27.612Z,25.30
2024-03-02T05:19:00.723Z,26.50
2024-03-02T05:21:33.649Z,25.60
2024-03-02T05:24:06.982Z,22.70
2024-03-02T05:26:39.888Z,26.70
2024-03-02T05:29:14.512Z,22.98
2024-03-02T05:31:47.735Z,27.52
2024-03-02T05:34:20.877Z,29.98
2024-03-02T05:36:54.584Z,24.67
2024-03-02T05:39:27.735Z,27.00
2024-03-02T05:42:01.057Z,24.17
2024-03-02T05:44:35.530Z,24.25
2024-03-02T05:47:10.027Z,26.65
2024-03-02T05:49:44.215Z,27.02
2024-03-02T05:52:17.169Z,26.73
2024-03-02T05:54:51.548Z,25.92
2024-03-02T05:57:40.316Z,27.92
2024-03-02T06:00:18.443Z,27.33
2024-03-02T06:02:52.177Z,28.00
2024-03-02T06:05:26.022Z,27.10
2024-03-02T06:07:59.109Z,26.45
2024-03-02T06:10:32.301Z,28.50
2024-03-02T06:13:05.657Z,26.90
2024-03-02T06:15:39.873Z,27.13
2024-03-02T06:18:13.076Z,23.40
2024-03-02T06:20:46.462Z,26.58
2024-03-02T06:23:19.972Z,27.42
2024-03-02T06:25:52.965Z,29.17
2024-03-02T06:28:25.940Z,28.05
2024-03-02T06:31:03.189Z,27.50
2024-03-02T06:33:36.353Z,28.15
2024-03-02T06:36:09.716Z,27.58
2024-03-02T06:38:43.849Z,27.25
2024-03-02T06:41:17.127Z,25.92
2024-03-02T06:43:51.327Z,29.90
2024-03-02T06:46:25.520Z,27.67
2024-03-02T06:48:58.496Z,26.10
2024-03-02T06:51:31.643Z,28.67
2024-03-02T06:54:11.070Z,28.60
2024-03-02T06:56:44.612Z,30.85
2024-03-02T06:59:17.585Z,29.77
2024-03-02T07:01:52.357Z,30.83
2024-03-02T07:04:25.561Z,27.17
2024-03-02T07:06:59.065Z,31.27
2024-03-02T07:09:32.175Z,26.67
2024-03-02T07:12:05.925Z,23.88
2024-03-02T07:14:57.020Z,24.92
2024-03-02T07:17:31.735Z,28.13
2024-03-02T07:20:05.929Z,26.63
2024-03-02T07:22:42.398Z,27.08
2024-03-02T07:27:54.012Z,25.85
2024-03-02T07:30:27.567Z,27.58
2024-03-02T07:33:02.056Z,25.65
2024-03-02T07:35:35.464Z,26.10
2024-03-02T07:38:09.188Z,24.75
2024-03-02T07:40:42.341Z,25.58
2024-03-02T07:43:15.333Z,26.02
2024-03-02T07:45:48.629Z,25.45
2024-03-02T07:48:23.381Z,24.25
2024-03-02T07:50:56.293Z,24.92
2024-03-02T07:53:29.703Z,24.25
2024-03-02T07:56:04.088Z,29.13
2024-03-02T07:58:38.133Z,26.48
2024-03-02T08:01:11.045Z,23.85
2024-03-02T08:03:49.480Z,25.52
2024-03-02T08:06:23.014Z,26.77
2024-03-02T08:08:56.543Z,22.75
2024-03-02T08:11:30.259Z,25.05
2024-03-02T08:14:04.063Z,24.20
2024-03-02T08:16:37.325Z,26.60
2024-03-02T08:19:12.590Z,22.98
2024-03-02T08:21:45.762Z,22.67
2024-03-02T08:24:18.663Z,22.92
2024-03-02T08:26:51.713Z,24.05
2024-03-02T08:29:24.861Z,22.73
2024-03-02T08:31:57.983Z,22.67
2024-03-02T08:34:33.367Z,22.23
2024-03-02T08:37:07.132Z,23.63
2024-03-02T08:39:40.236Z,22.25
2024-03-02T08:42:13.664Z,22.70
2024-03-02T08:44:46.466Z,22.52
2024-03-02T08:47:20.045Z,22.17
2024-03-02T08:49:54.465Z,20.73
2024-03-02T08:52:27.807Z,20.70
2024-03-02T08:55:01.417Z,20.23
2024-03-02T08:57:35.413Z,20.67
2024-03-02T09:00:10.086Z,19.35
2024-03-02T09:02:43.441Z,20.52
2024-03-02T09:05:17.967Z,18.65
2024-03-02T09:07:51.289Z,20.67
2024-03-02T09:10:26.973Z,19.10
2024-03-02T09:13:02.129Z,17.98
2024-03-02T09:15:39.007Z,19.35
2024-03-02T09:18:13.503Z,19.02
2024-03-02T09:20:48.486Z,21.42
2024-03-02T09:23:23.340Z,21.20
2024-03-02T09:25:56.345Z,19.40
2024-03-02T09:28:29.249Z,19.25
2024-03-02T09:31:03.284Z,18.50
2024-03-02T09:33:36.702Z,16.55
2024-03-02T09:36:21.011Z,16.65
2024-03-02T09:38:54.450Z,17.27
2024-03-02T09:41:27.714Z,18.23
2024-03-02T09:44:00.929Z,16.80
2024-03-02T09:46:33.885Z,15.93
2024-03-02T09:49:06.754Z,17.02
2024-03-02T09:51:42.836Z,17.33
2024-03-02T09:54:22.024Z,18.95
2024-03-02T09:56:56.050Z,17.33
2024-03-02T09:59:29.267Z,16.75
2024-03-02T10:02:03.556Z,14.88
2024-03-02T10:04:37.916Z,13.70
2024-03-02T10:07:16.998Z,14.88
2024-03-02T10:09:51.274Z,15.43
2024-03-02T10:12:24.580Z,14.77
2024-03-02T10:15:08.979Z,15.95
2024-03-02T10:17:42.138Z,13.10
2024-03-02T10:20:25.486Z,15.00
2024-03-02T10:23:12.776Z,14.27
2024-03-02T10:25:51.896Z,14.55
2024-03-02T10:28:31.074Z,14.02
2024-03-02T10:31:04.344Z,13.77
2024-03-02T10:33:38.256Z,12.55
2024-03-02T10:36:11.739Z,13.70
2024-03-02T10:38:48.539Z,12.60
2024-03-02T10:41:25.428Z,12.77
2024-03-02T10:44:00.713Z,13.20
2024-03-02T10:46:36.214Z,12.60
2024-03-02T10:49:10.139Z,14.68
2024-03-02T10:51:43.996Z,12.63
2024-03-02T10:54:19.752Z,10.98
2024-03-02T10:56:53.337Z,11.60
2024-03-02T10:59:30.456Z,9.40
2024-03-02T11:02:06.310Z,10.70
2024-03-02T11:04:42.944Z,9.52
2024-03-02T11:07:17.790Z,9.20
2024-03-02T11:10:00.026Z,9.82
2024-03-02T11:12:40.826Z,9.90
2024-03-02T11:15:20.137Z,10.13
2024-03-02T11:17:54.433Z,9.95
2024-03-02T11:20:30.213Z,7.38
2024-03-02T11:23:09.114Z,8.75
2024-03-02T11:25:43.434Z,9.25
2024-03-02T11:28:16.440Z,8.52
2024-03-02T11:30:53.943Z,7.65
2024-03-02T11:33:32.031Z,8.02
2024-03-02T11:36:09.286Z,9.02
2024-03-02T11:38:46.667Z,8.07
2024-03-02T11:41:21.619Z,7.95
2024-03-02T11:43:54.730Z,8.32
2024-03-02T11:46:28.288Z,9.77
2024-03-02T11:49:02.085Z,8.27
2024-03-02T11:51:36.491Z,9.57
2024-03-02T11:54:10.993Z,8.35
2024-03-02T11:56:45.903Z,6.65
2024-03-02T11:59:19.745Z,5.65
2024-03-02T12:01:53.004Z,5.57
2024-03-02T12:04:27.004Z,4.68
2024-03-02T12:07:02.224Z,7.00
2024-03-02T12:09:35.471Z,6.20
2024-03-02T12:12:12.635Z,4.63
2024-03-02T12:14:54.265Z,5.43
2024-03-02T12:17:27.307Z,5.40
2024-03-02T12:20:00.874Z,5.40
2024-03-02T12:22:34.455Z,4.28
2024-03-02T12:25:07.717Z,3.88
2024-03-02T12:27:42.958Z,3.88
2024-03-02T12:30:16.145Z,4.55
2024-03-02T12:32:50.012Z,3.08
2024-03-02T12:35:23.568Z,3.22
2024-03-02T12:37:57.355Z,3.13
2024-03-02T12:40:30.860Z,1.95
2024-03-02T12:43:05.872Z,2.17
2024-03-02T12:45:41.395Z,1.50
2024-03-02T12:48:18.233Z,1.20
2024-03-02T12:50:51.616Z,1.17
2024-03-02T12:53:26.331Z,2.05
2024-03-02T12:56:00.828Z,1.45
2024-03-02T12:58:41.745Z,3.83
2024-03-02T13:01:20.626Z,1.15
2024-03-02T13:03:56.328Z,1.35
2024-03-02T13:06:30.768Z,1.20
2024-03-02T13:09:05.260Z,1.83
2024-03-02T13:11:38.838Z,3.58
2024-03-02T13:14:14.228Z,2.30
2024-03-02T13:16:48.632Z,5.60
2024-03-02T13:19:21.741Z,2.75
2024-03-02T13:21:54.611Z,1.90
2024-03-02T13:24:29.575Z,2.53
2024-03-02T13:27:05.191Z,3.53
2024-03-02T13:29:40.111Z,6.93
2024-03-02T13:32:13.338Z,3.67
2024-03-02T13:34:46.355Z,4.22
2024-03-02T13:37:19.894Z,2.38
2024-03-02T13:39:52.950Z,1.73
2024-03-02T13:42:26.648Z,4.10
2024-03-02T13:45:01.439Z,2.72
2024-03-02T13:47:34.859Z,3.22
2024-03-02T13:50:08.609Z,1.65
2024-03-02T13:52:41.735Z,5.47
2024-03-02T13:55:15.214Z,3.53
2024-03-02T13:57:50.066Z,3.60
2024-03-02T14:00:24.686Z,4.22
2024-03-02T14:02:58.153Z,4.18
2024-03-02T14:05:31.241Z,3.85
2024-03-02T14:08:05.407Z,4.45
2024-03-02T14:10:38.678Z,3.53
2024-03-02T14:13:12.191Z,3.85
2024-03-02T14:15:47.564Z,5.68
2024-03-02T14:18:22.452Z,3.85
2024-03-02T14:20:55.940Z,4.55
2024-03-02T14:23:30.754Z,4.53
2024-03-02T14:26:04.802Z,4.20
2024-03-02T14:28:49.365Z,4.25
2024-03-02T14:31:26.338Z,4.35
2024-03-02T14:34:00.315Z,4.57
2024-03-02T14:36:34.502Z,4.05
2024-03-02T14:39:11.330Z,6.32
2024-03-02T14:41:45.606Z,4.72
2024-03-02T14:44:19.456Z,4.50
2024-03-02T14:46:54.091Z,4.20
2024-03-02T14:49:27.450Z,4.40
2024-03-02T14:52:01.007Z,4.18
2024-03-02T14:54:38.058Z,5.75
2024-03-02T14:57:16.250Z,4.45
2024-03-02T14:59:50.108Z,5.32
2024-03-02T15:02:24.843Z,5.30
2024-03-02T15:04:58.039Z,5.88
2024-03-02T15:07:31.354Z,5.97
2024-03-02T15:10:05.688Z,7.85
2024-03-02T15:12:39.913Z,8.68
2024-03-02T15:15:13.519Z,8.38
2024-03-02T15:17:48.108Z,7.53
2024-03-02T15:20:23.025Z,7.93
2024-03-02T15:22:56.232Z,6.18
2024-03-02T15:25:29.860Z,7.60
2024-03-02T15:28:03.254Z,7.40
2024-03-02T15:30:37.749Z,6.32
2024-03-02T15:33:13.336Z,7.05
2024-03-02T15:35:49.841Z,6.78
2024-03-02T15:38:33.571Z,6.03
2024-03-02T15:41:09.826Z,5.50
2024-03-02T15:43:44.115Z,5.85
2024-03-02T15:46:17.685Z,5.32
2024-03-02T15:49:05.606Z,7.15
2024-03-02T15:51:45.857Z,7.63
2024-03-02T15:54:19.870Z,10.60
2024-03-02T15:57:00.685Z,11.05
2024-03-02T15:59:34.209Z,11.80
2024-03-02T16:02:11.561Z,12.75
2024-03-02T16:04:46.642Z,12.05
2024-03-02T16:07:21.947Z,16.65
2024-03-02T16:09:55.608Z,14.10
2024-03-02T16:12:30.662Z,13.45
2024-03-02T16:15:06.554Z,13.82
2024-03-02T16:17:42.270Z,14.15
2024-03-02T16:20:16.871Z,16.88
2024-03-02T16:22:49.940Z,14.88
2024-03-02T16:25:25.982Z,14.30
2024-03-02T16:27:59.668Z,17.45
2024-03-02T16:30:32.811Z,19.88
2024-03-02T16:33:06.591Z,17.38
2024-03-02T16:35:40.989Z,15.85
2024-03-02T16:38:14.201Z,16.42
2024-03-02T16:40:49.160Z,13.48
2024-03-02T16:43:22.214Z,17.52
2024-03-02T16:45:55.401Z,14.98
2024-03-02T16:48:28.697Z,12.95
2024-03-02T16:51:04.756Z,13.50
2024-03-02T16:53:38.554Z,13.88
2024-03-02T16:56:11.875Z,17.55
2024-03-02T16:58:45.044Z,19.00
2024-03-02T17:01:19.572Z,17.02
2024-03-02T17:03:52.629Z,20.70
2024-03-02T17:06:27.241Z,23.05
2024-03-02T17:09:00.561Z,22.58
2024-03-02T17:11:34.961Z,17.80
2024-03-02T17:14:07.896Z,21.38
2024-03-02T17:16:41.140Z,22.52
2024-03-02T17:19:17.643Z,18.05
2024-03-02T17:21:57.859Z,21.70
2024-03-02T17:27:33.380Z,22.20
2024-03-02T17:30:17.282Z,20.20
2024-03-02T17:33:08.910Z,19.23
2024-03-02T17:35:46.784Z,21.23
2024-03-02T17:38:21.626Z,20.35
2024-03-02T17:40:55.376Z,21.10
2024-03-02T17:43:30.345Z,24.83
2024-03-02T17:46:13.266Z,19.98
2024-03-02T17:48:56.759Z,25.38
2024-03-02T17:56:35.335Z,26.38
2024-03-02T17:59:22.944Z,24.25
2024-03-02T18:02:01.352Z,20.95
2024-03-02T18:04:42.936Z,25.10
2024-03-02T18:07:44.485Z,30.20
2024-03-02T18:10:24.626Z,22.83
2024-03-02T18:13:06.721Z,26.58
2024-03-02T18:15:51.720Z,21.05
2024-03-02T18:18:28.939Z,25.13
2024-03-02T18:21:10.947Z,27.13
2024-03-02T18:23:47.293Z,24.83
2024-03-02T18:26:31.447Z,22.00
2024-03-02T18:32:03.475Z,23.25
2024-03-02T18:34:47.330Z,24.73
2024-03-02T18:37:35.743Z,26.45
2024-03-02T18:40:15.854Z,28.33
2024-03-02T18:46:01.147Z,25.77
2024-03-02T18:48:37.413Z,27.02
2024-03-02T18:51:11.431Z,27.95
2024-03-02T18:53:45.641Z,29.38
2024-03-02T18:56:28.064Z,28.75
2024-03-02T18:59:19.776Z,29.88
2024-03-02T19:01:55.882Z,26.88
2024-03-02T19:04:37.708Z,27.67
2024-03-02T19:07:17.184Z,28.83
2024-03-02T19:09:50.885Z,27.20
2024-03-02T19:12:28.993Z,29.20
2024-03-02T19:15:08.566Z,26.15
2024-03-02T19:17:44.290Z,26.63
2024-03-02T19:20:19.117Z,28.52
2024-03-02T19:22:54.136Z,27.58
2024-03-02T19:25:33.746Z,29.73
2024-03-02T19:28:07.960Z,30.85
2024-03-02T19:30:46.659Z,27.00
2024-03-02T19:33:25.562Z,27.88
2024-03-02T19:36:00.985Z,28.75
2024-03-02T19:38:41.004Z,26.73
2024-03-02T19:41:14.697Z,27.60
2024-03-02T19:43:48.274Z,30.08
2024-03-02T19:46:29.430Z,26.73
2024-03-02T19:49:10.508Z,33.53
2024-03-02T19:51:47.212Z,31.17
2024-03-02T19:54:21.460Z,33.08
2024-03-02T19:57:03.420Z,33.47
2024-03-02T19:59:41.142Z,31.17
2024-03-02T20:02:19.795Z,37.33
2024-03-02T20:04:55.038Z,32.53
2024-03-02T20:07:33.237Z,31.20
2024-03-02T20:10:08.227Z,29.95
2024-03-02T20:12:52.023Z,34.83
2024-03-02T20:15:25.767Z,30.95
2024-03-02T20:18:02.592Z,28.23
2024-03-02T20:21:01.577Z,28.52
2024-03-02T20:23:53.513Z,29.83
2024-03-02T20:26:29.725Z,31.17
2024-03-02T20:29:04.774Z,29.25
2024-03-02T20:31:39.792Z,29.13
2024-03-02T20:34:13.820Z,31.83
2024-03-02T20:36:51.294Z,31.23
2024-03-02T20:39:30.409Z,31.50
2024-03-02T20:42:04.460Z,28.98
2024-03-02T20:44:45.386Z,27.17
2024-03-02T20:47:25.882Z,26.17
2024-03-02T20:50:10.518Z,30.80
2024-03-02T20:52:46.397Z,27.17
2024-03-02T20:55:22.785Z,32.58
2024-03-02T21:01:20.682Z,29.85
2024-03-02T21:03:53.949Z,27.23
2024-03-02T21:06:28.661Z,30.80
2024-03-02T21:09:04.505Z,29.52
2024-03-02T21:11:39.260Z,29.30
2024-03-02T21:14:12.616Z,28.83
2024-03-02T21:16:46.194Z,26.33
2024-03-02T21:19:19.467Z,25.40
2024-03-02T21:21:52.837Z,27.00
2024-03-02T21:24:27.616Z,25.67
2024-03-02T21:27:01.239Z,24.77
2024-03-02T21:29:42.594Z,23.15
2024-03-02T21:32:19.486Z,28.25
2024-03-02T21:35:05.437Z,27.85
2024-03-02T21:37:44.983Z,28.00
2024-03-02T21:40:20.636Z,28.73
2024-03-02T21:42:53.919Z,28.13
2024-03-02T21:45:27.606Z,27.77
2024-03-02T21:48:01.331Z,24.40
2024-03-02T21:50:35.566Z,27.15
2024-03-02T21:53:09.255Z,25.48
2024-03-02T21:55:44.354Z,26.40
2024-03-02T21:58:18.219Z,27.98
2024-03-02T22:00:54.594Z,25.63
2024-03-02T22:03:28.312Z,22.60
2024-03-02T22:06:02.417Z,21.50
2024-03-02T22:08:42.486Z,23.38
2024-03-02T22:11:30.826Z,24.98
2024-03-02T22:14:12.622Z,21.02
2024-03-02T22:16:46.329Z,26.35
2024-03-02T22:19:20.204Z,23.98
2024-03-02T22:21:53.735Z,24.13
2024-03-02T22:24:27.543Z,21.75
2024-03-02T22:27:02.559Z,22.60
2024-03-02T22:29:36.359Z,22.40
2024-03-02T22:32:18.455Z,20.75
2024-03-02T22:34:51.801Z,23.55
2024-03-02T22:37:25.177Z,25.02
2024-03-02T22:40:05.695Z,20.60
2024-03-02T22:42:48.427Z,25.15
2024-03-02T22:45:22.575Z,25.63
2024-03-02T22:48:04.075Z,23.50
2024-03-02T22:50:46.425Z,21.70
2024-03-02T22:53:28.300Z,27.13
2024-03-02T23:13:01.408Z,26.02
2024-03-02T23:13:15.530Z,21.52
2024-03-02T23:15:54.676Z,20.63
2024-03-02T23:18:35.624Z,26.55
2024-03-02T23:21:09.458Z,24.60
2024-03-02T23:23:45.982Z,25.17
2024-03-02T23:26:22.257Z,22.67
2024-03-02T23:28:55.652Z,21.75
2024-03-02T23:31:31.379Z,21.55
2024-03-02T23:34:09.185Z,20.70
2024-03-02T23:36:46.713Z,21.17
2024-03-02T23:39:47.171Z,20.70
2024-03-02T23:42:20.348Z,26.67
2024-03-02T23:44:54.260Z,21.35
2024-03-02T23:47:31.574Z,21.58
2024-03-02T23:50:17.466Z,21.35
2024-03-02T23:52:51.232Z,21.58
2024-03-02T23:55:46.358Z,21.85
2024-03-02T23:58:25.260Z,21.63
